createdAt,value
2017-08-07T00:05:43.128Z,1023.653
2017-08-07T00:08:37.907Z,1023.607
2017-08-07T06:09:05.805Z,1023.474
2017-08-07T06:11:49.124Z,1023.458
2017-08-07T06:14:42.843Z,1023.389
2017-08-07T06:17:37.108Z,1023.458
2017-08-07T06:20:31.746Z,1023.465
2017-08-07T06:23:26.359Z,1023.477
2017-08-07T06:26:43.741Z,1023.508
2017-08-07T06:29:31.648Z,1023.493
2017-08-07T06:32:26.214Z,1023.516
2017-08-07T06:35:20.903Z,1023.534
2017-08-07T06:44:28.569Z,1023.490
2017-08-07T06:47:12.034Z,1023.495
2017-08-07T06:50:05.900Z,1023.475
2017-08-07T06:53:00.319Z,1023.471
2017-08-07T06:55:54.899Z,1023.460
2017-08-07T06:58:49.718Z,1023.477
2017-08-07T07:01:44.509Z,1023.479
2017-08-07T07:04:39.301Z,1023.474
2017-08-07T07:07:34.125Z,1023.412
2017-08-07T07:10:28.953Z,1023.357
2017-08-07T07:13:23.948Z,1023.336
2017-08-07T07:16:18.725Z,1023.351
2017-08-07T07:19:13.591Z,1023.380
2017-08-07T07:22:08.489Z,1023.342
2017-08-07T07:25:03.303Z,1023.331
2017-08-07T07:27:58.218Z,1023.332
2017-08-07T07:30:53.065Z,1023.349
2017-08-07T07:33:47.990Z,1023.315
2017-08-07T07:36:42.840Z,1023.320
2017-08-07T07:39:37.833Z,1023.325
2017-08-07T07:42:32.810Z,1023.299
2017-08-07T07:45:27.606Z,1023.257
2017-08-07T07:48:22.531Z,1023.265
2017-08-07T07:51:17.516Z,1023.282
2017-08-07T07:54:12.514Z,1023.266
2017-08-07T07:57:07.424Z,1023.203
2017-08-07T08:00:02.500Z,1023.203
2017-08-07T08:02:57.433Z,1023.204
2017-08-07T08:05:52.300Z,1023.189
2017-08-07T08:08:47.192Z,1023.142
2017-08-07T08:11:42.190Z,1023.169
2017-08-07T08:14:37.385Z,1023.125
2017-08-07T08:17:32.386Z,1023.067
2017-08-07T08:20:27.397Z,1023.067
2017-08-07T08:23:22.403Z,1023.064
2017-08-07T08:26:17.287Z,1023.048
2017-08-07T08:29:12.269Z,1022.964
2017-08-07T08:32:07.252Z,1022.945
2017-08-07T08:35:02.460Z,1022.970
2017-08-07T08:37:57.375Z,1022.956
2017-08-07T08:40:52.405Z,1022.951
2017-08-07T08:43:47.347Z,1022.935
2017-08-07T08:46:42.472Z,1022.939
2017-08-07T08:49:37.748Z,1022.890
2017-08-07T08:52:32.819Z,1022.848
2017-08-07T08:55:27.968Z,1022.834
2017-08-07T08:58:23.090Z,1022.885
2017-08-07T09:01:18.224Z,1022.804
2017-08-07T09:07:08.649Z,1022.666
2017-08-07T09:10:03.716Z,1022.732
2017-08-07T09:12:59.047Z,1022.665
2017-08-07T09:15:54.444Z,1022.652
2017-08-07T09:18:49.926Z,1022.641
2017-08-07T09:21:45.528Z,1022.637
2017-08-07T09:24:41.058Z,1022.602
2017-08-07T09:27:36.526Z,1022.569
2017-08-07T09:33:27.514Z,1022.439
2017-08-07T09:36:23.275Z,1022.384
2017-08-07T09:39:18.748Z,1022.377
2017-08-07T09:42:14.312Z,1022.361
2017-08-07T09:45:09.855Z,1022.307
2017-08-07T09:48:05.379Z,1022.275
2017-08-07T09:51:01.138Z,1022.300
2017-08-07T09:53:56.760Z,1022.197
2017-08-07T10:02:43.860Z,1022.310
2017-08-07T10:05:39.257Z,1022.233
2017-08-07T10:08:35.104Z,1022.238
2017-08-07T10:11:30.917Z,1022.226
2017-08-07T10:14:26.976Z,1022.210
2017-08-07T10:17:22.868Z,1022.240
2017-08-07T10:20:18.886Z,1022.206
2017-08-07T10:23:15.004Z,1022.196
2017-08-07T10:26:11.036Z,1022.188
2017-08-07T10:29:06.653Z,1022.191
2017-08-07T10:32:02.111Z,1022.179
2017-08-07T10:37:52.658Z,1022.187
2017-08-07T10:40:47.903Z,1022.139
2017-08-07T10:49:33.581Z,1022.097
2017-08-07T10:52:28.983Z,1022.109
2017-08-07T10:55:24.277Z,1022.068
2017-08-07T10:58:19.527Z,1022.075
2017-08-07T11:01:14.670Z,1022.041
2017-08-07T11:04:09.988Z,1022.014
2017-08-07T11:07:05.423Z,1021.983
2017-08-07T11:12:55.996Z,1021.941
2017-08-07T11:15:51.370Z,1021.903
2017-08-07T11:18:46.625Z,1021.861
2017-08-07T11:21:42.051Z,1021.848
2017-08-07T11:24:37.383Z,1021.871
2017-08-07T11:27:32.768Z,1021.852
2017-08-07T11:30:28.192Z,1021.828
2017-08-07T11:36:19.071Z,1021.843
2017-08-07T11:39:14.712Z,1021.837
2017-08-07T11:42:10.127Z,1021.809
2017-08-07T11:45:05.571Z,1021.815
2017-08-07T11:48:01.038Z,1021.827
2017-08-07T11:50:56.365Z,1021.825
2017-08-07T11:53:51.758Z,1021.742
2017-08-07T11:56:47.081Z,1021.681
2017-08-07T11:59:42.464Z,1021.685
2017-08-07T12:02:37.787Z,1021.668
2017-08-07T12:05:33.084Z,1021.680
2017-08-07T12:08:28.356Z,1021.665
2017-08-07T12:11:23.947Z,1021.658
2017-08-07T12:14:19.204Z,1021.624
2017-08-07T12:17:14.569Z,1021.612
2017-08-07T12:23:05.220Z,1021.568
2017-08-07T12:26:00.565Z,1021.541
2017-08-07T12:28:55.787Z,1021.528
2017-08-07T12:31:50.989Z,1021.509
2017-08-07T12:34:46.259Z,1021.430
2017-08-07T12:37:41.455Z,1021.457
2017-08-07T12:40:36.814Z,1021.445
2017-08-07T12:43:32.108Z,1021.360
2017-08-07T12:49:22.771Z,1021.405
2017-08-07T12:58:08.719Z,1021.220
2017-08-07T13:01:03.972Z,1021.255
2017-08-07T13:03:59.266Z,1021.225
2017-08-07T13:06:54.483Z,1021.227
2017-08-07T13:09:49.732Z,1021.220
2017-08-07T13:12:44.934Z,1021.162
2017-08-07T13:15:40.226Z,1021.164
2017-08-07T13:18:35.438Z,1021.178
2017-08-07T13:21:30.673Z,1021.152
2017-08-07T13:24:25.800Z,1021.151
2017-08-07T13:27:21.223Z,1021.186
2017-08-07T13:30:16.550Z,1021.154
2017-08-07T13:33:11.751Z,1021.148
2017-08-07T13:36:07.043Z,1021.150
2017-08-07T13:39:02.368Z,1021.054
2017-08-07T13:41:57.490Z,1021.095
2017-08-07T13:44:52.776Z,1021.011
2017-08-07T13:47:48.147Z,1021.026
2017-08-07T13:53:38.665Z,1020.899
2017-08-07T13:56:34.073Z,1020.933
2017-08-07T13:59:29.169Z,1020.863
2017-08-07T14:02:24.323Z,1020.863
2017-08-07T14:05:19.431Z,1020.832
2017-08-07T14:08:14.699Z,1020.797
2017-08-07T14:11:09.916Z,1020.799
2017-08-07T14:14:05.067Z,1020.749
2017-08-07T14:17:00.309Z,1020.733
2017-08-07T14:19:55.410Z,1020.670
2017-08-07T14:22:50.667Z,1020.626
2017-08-07T14:25:45.797Z,1020.555
2017-08-07T14:28:41.264Z,1020.524
2017-08-07T14:31:36.406Z,1020.549
2017-08-07T14:34:31.617Z,1020.517
2017-08-07T14:37:26.814Z,1020.487
2017-08-07T14:40:21.997Z,1020.443
2017-08-07T14:43:17.197Z,1020.439
2017-08-07T14:46:12.501Z,1020.433
2017-08-07T14:49:07.800Z,1020.378
2017-08-07T14:52:03.076Z,1020.313
2017-08-07T14:57:53.558Z,1020.312
2017-08-07T15:00:48.830Z,1020.278
2017-08-07T15:03:44.045Z,1020.266
2017-08-07T15:06:39.228Z,1020.327
2017-08-07T15:09:34.403Z,1020.344
2017-08-07T15:12:29.594Z,1020.278
2017-08-07T15:15:24.846Z,1020.279
2017-08-07T15:18:20.064Z,1020.275
2017-08-07T15:21:15.211Z,1020.299
2017-08-07T15:24:10.430Z,1020.215
2017-08-07T15:27:05.628Z,1020.235
2017-08-07T15:30:00.918Z,1020.213
2017-08-07T15:35:51.317Z,1020.145
2017-08-07T15:38:46.501Z,1020.111
2017-08-07T15:41:41.745Z,1020.132
2017-08-07T15:44:37.015Z,1020.111
2017-08-07T15:47:32.237Z,1020.070
2017-08-07T15:50:27.433Z,1020.105
2017-08-07T15:53:22.669Z,1020.082
2017-08-07T15:56:17.881Z,1020.093
2017-08-07T15:59:13.017Z,1020.068
2017-08-07T16:02:08.312Z,1020.051
2017-08-07T16:05:03.540Z,1019.957
2017-08-07T16:10:53.770Z,1020.014
2017-08-07T16:13:48.929Z,1019.961
2017-08-07T16:16:44.169Z,1019.964
2017-08-07T16:19:39.331Z,1019.895
2017-08-07T16:25:29.634Z,1019.875
2017-08-07T16:28:24.784Z,1019.868
2017-08-07T16:31:20.080Z,1019.852
2017-08-07T16:34:15.303Z,1019.841
2017-08-07T16:37:10.607Z,1019.823
2017-08-07T16:43:01.035Z,1019.784
2017-08-07T16:45:56.301Z,1019.773
2017-08-07T16:48:51.568Z,1019.776
2017-08-07T16:51:46.817Z,1019.655
2017-08-07T16:54:42.058Z,1019.766
2017-08-07T16:57:37.359Z,1019.801
2017-08-07T17:00:32.502Z,1019.793
2017-08-07T17:03:27.745Z,1019.768
2017-08-07T17:06:22.880Z,1019.764
2017-08-07T17:09:18.189Z,1019.780
2017-08-07T17:12:13.425Z,1019.701
2017-08-07T17:15:08.717Z,1019.711
2017-08-07T17:18:03.935Z,1019.711
2017-08-07T17:20:59.149Z,1019.715
2017-08-07T17:23:54.352Z,1019.680
2017-08-07T17:26:49.670Z,1019.645
2017-08-07T17:29:44.955Z,1019.689
2017-08-07T17:32:40.183Z,1019.653
2017-08-07T17:35:35.480Z,1019.656
2017-08-07T17:38:30.657Z,1019.668
2017-08-07T17:41:25.756Z,1019.686
2017-08-07T17:44:20.966Z,1019.705
2017-08-07T17:47:16.092Z,1019.662
2017-08-07T17:50:11.368Z,1019.576
2017-08-07T17:53:06.616Z,1019.548
2017-08-07T17:56:01.926Z,1019.567
2017-08-07T17:58:57.076Z,1019.575
2017-08-07T18:04:47.731Z,1019.499
2017-08-07T18:07:43.014Z,1019.495
2017-08-07T18:10:38.265Z,1019.518
2017-08-07T18:13:33.320Z,1019.569
2017-08-07T18:16:28.428Z,1019.532
2017-08-07T18:19:23.680Z,1019.552
2017-08-07T18:22:18.772Z,1019.532
2017-08-07T18:25:14.020Z,1019.501
2017-08-07T18:28:09.105Z,1019.480
2017-08-07T18:31:04.276Z,1019.453
2017-08-07T18:33:59.478Z,1019.486
2017-08-07T18:36:54.719Z,1019.488
2017-08-07T18:39:49.789Z,1019.473
2017-08-07T18:42:45.086Z,1019.484
2017-08-07T18:45:40.190Z,1019.498
2017-08-07T18:48:35.312Z,1019.505
2017-08-07T18:51:30.509Z,1019.518
2017-08-07T18:54:25.571Z,1019.519
2017-08-07T18:57:20.742Z,1019.522
2017-08-07T19:03:11.031Z,1019.585
2017-08-07T19:09:01.183Z,1019.611
2017-08-07T19:11:56.364Z,1019.644
2017-08-07T19:14:51.511Z,1019.617
2017-08-07T19:17:46.629Z,1019.639
2017-08-07T19:20:41.640Z,1019.660
2017-08-07T19:23:37.096Z,1019.691
2017-08-07T19:26:32.184Z,1019.709
2017-08-07T19:29:27.292Z,1019.648
2017-08-07T19:32:22.357Z,1019.658
2017-08-07T19:35:17.494Z,1019.655
2017-08-07T19:38:12.485Z,1019.693
2017-08-07T19:41:07.638Z,1019.728
2017-08-07T19:44:02.579Z,1019.735
2017-08-07T19:46:57.529Z,1019.706
2017-08-07T19:49:52.445Z,1019.727
2017-08-07T19:52:47.420Z,1019.727
2017-08-07T19:55:42.511Z,1019.695
2017-08-07T19:58:37.478Z,1019.706
2017-08-07T20:01:32.508Z,1019.672
2017-08-07T20:04:27.539Z,1019.761
2017-08-07T20:07:22.569Z,1019.796
2017-08-07T20:10:17.665Z,1019.798
2017-08-07T20:13:12.593Z,1019.827
2017-08-07T20:16:07.634Z,1019.838
2017-08-07T20:19:02.571Z,1019.827
2017-08-07T20:21:57.576Z,1019.779
2017-08-07T20:24:52.505Z,1019.775
2017-08-07T20:27:47.395Z,1019.755
2017-08-07T20:30:42.368Z,1019.806
2017-08-07T20:33:37.252Z,1019.764
2017-08-07T20:36:32.084Z,1019.770
2017-08-07T20:39:26.924Z,1019.786
2017-08-07T20:42:21.837Z,1019.773
2017-08-07T20:45:16.724Z,1019.744
2017-08-07T20:48:11.548Z,1019.738
2017-08-07T20:51:06.297Z,1019.710
2017-08-07T20:54:01.059Z,1019.675
2017-08-07T20:59:50.396Z,1019.638
2017-08-07T21:02:45.001Z,1019.636
2017-08-07T21:05:39.575Z,1019.587
2017-08-07T21:08:34.189Z,1019.559
2017-08-07T21:11:28.643Z,1019.594
2017-08-07T21:17:17.539Z,1019.605
2017-08-07T21:20:11.785Z,1019.549
2017-08-07T21:23:06.019Z,1019.509
2017-08-07T21:26:00.205Z,1019.472
2017-08-07T21:31:48.600Z,1019.383
2017-08-07T21:34:42.799Z,1019.396
2017-08-07T21:37:37.470Z,1019.387
2017-08-07T21:40:32.068Z,1019.380
2017-08-07T21:43:26.794Z,1019.354
2017-08-07T21:46:21.339Z,1019.366
2017-08-07T21:49:16.207Z,1019.367
2017-08-07T21:52:10.805Z,1019.355
2017-08-07T21:55:05.368Z,1019.322
2017-08-07T21:57:59.841Z,1019.325
2017-08-07T22:00:54.441Z,1019.349
2017-08-07T22:03:48.804Z,1019.317
2017-08-07T22:06:43.119Z,1019.300
2017-08-07T22:09:37.407Z,1019.278
2017-08-07T22:12:32.138Z,1019.262
2017-08-07T22:15:27.306Z,1019.225
2017-08-07T22:21:16.703Z,1019.226
2017-08-07T22:24:11.366Z,1019.204
2017-08-07T22:30:00.780Z,1019.118
2017-08-07T22:32:55.455Z,1019.113
2017-08-07T22:35:50.187Z,1019.108
2017-08-07T22:38:44.956Z,1019.095
2017-08-07T22:41:39.646Z,1019.052
2017-08-07T22:44:34.438Z,1019.059
2017-08-07T22:47:29.295Z,1019.030
2017-08-07T22:50:24.118Z,1019.003
2017-08-07T22:53:19.021Z,1019.010
2017-08-07T22:56:13.848Z,1019.032
2017-08-07T22:59:08.644Z,1019.105
2017-08-07T23:02:03.508Z,1019.129
2017-08-07T23:04:58.207Z,1019.105
2017-08-07T23:07:52.983Z,1019.060
2017-08-07T23:10:47.861Z,1019.063
2017-08-07T23:13:42.655Z,1019.123
2017-08-07T23:16:37.415Z,1019.123
2017-08-07T23:19:32.301Z,1019.122
2017-08-07T23:22:27.026Z,1019.056
2017-08-07T23:25:21.753Z,1019.062
2017-08-07T23:28:16.404Z,1019.048
2017-08-07T23:31:11.120Z,1019.072
2017-08-07T23:34:05.832Z,1019.065
2017-08-07T23:37:00.471Z,1019.039
2017-08-07T23:39:55.400Z,1019.005
2017-08-07T23:42:50.167Z,1018.972
2017-08-07T23:45:45.001Z,1018.998
2017-08-07T23:48:39.759Z,1018.961
2017-08-07T23:51:34.527Z,1018.952
2017-08-07T23:54:29.275Z,1018.903
2017-08-07T23:57:35.307Z,1018.836
